Airfield :
LOGIN :

Register | Disclaimer

   EN    FR    IT 

 










Legend :    VFR   Marginal VFR   IFR   Intensive IFR   Very Intensive IFR
Visi :
Ceiling :
>= 8 km
>= 3000ft
5 to 8 km
1000 to 3000 ft
1500m to 5 km
500 to 1000 ft
800 to 1500m
200 to 500 ft
< 800m
< 200 ft
Symbols :   Thunderstorms  Fog  Heavy snow  Heavy precipitations  Wind > 20 kt
SIGMETs :     Misc.  Thunderstorms  Icing  Turbulence  Mountain Waves  Volcanic Ashes







- Airport Elevation : 125 ft
- IATA code : MGL


EDLN - Mönchengladbach

CURRENT METAR :
  • 211350Z /////KT 9999 BKN048 ///// Q1027

EXPIRED METARs :
  • 211320Z /////KT CAVOK ///// Q1027 RERA
  • 211250Z /////KT 9999 FEW028 ///// Q1027
  • 211220Z /////KT 9999 SCT029 ///// Q1027
  • 211150Z /////KT 8000 NSC ///// Q1027
  • 211120Z /////KT 7000 FEW032 ///// Q1027

TAF TAF EDLN
Valid from the 21 at 12:00 until the 21 at 21:00 UTC


211100Z 2112/2121 26006KT 9999 SCT045
TEMPO 2118/2121 VRB02KT
BECMG 2119/2121 4000 -RADZ BKN012
No reported NOTAMs for that airfield.



MET'MAP, your aeronautical weather chart ! - Copyright ORBIFLY December 2007 - Disclaimer

ORBIFLY MET'MAP TEAM :

Programming & Development : Alexandra Zaïnal
Concept & Development : Baudouin d'Aumeries
Co-Development & Prog : Marc-Olivier Méhu
Technical & hardware support : Manuel Goepfert

Contact : metmap@orbifly.com




SOURCES & CREDITS :

   NOAA